sensor_id;sensor_type;location;lat;lon;timestamp;P1;durP1;ratioP1;P2;durP2;ratioP2
69240;SDS011;56352;55.750;13.198;2023-04-21T00:00:52;3.47;;;2.58;;
69240;SDS011;56352;55.750;13.198;2023-04-21T00:03:19;4.60;;;2.80;;
69240;SDS011;56352;55.750;13.198;2023-04-21T00:05:48;3.28;;;2.40;;
69240;SDS011;56352;55.750;13.198;2023-04-21T00:08:16;3.50;;;2.78;;
69240;SDS011;56352;55.750;13.198;2023-04-21T00:10:43;4.10;;;2.40;;
69240;SDS011;56352;55.750;13.198;2023-04-21T00:13:10;4.07;;;2.70;;
69240;SDS011;56352;55.750;13.198;2023-04-21T00:15:36;4.72;;;2.50;;
69240;SDS011;56352;55.750;13.198;2023-04-21T00:18:03;3.92;;;2.40;;
69240;SDS011;56352;55.750;13.198;2023-04-21T00:20:30;6.93;;;2.70;;
69240;SDS011;56352;55.750;13.198;2023-04-21T00:22:57;3.80;;;2.67;;
69240;SDS011;56352;55.750;13.198;2023-04-21T00:25:23;4.72;;;2.45;;
69240;SDS011;56352;55.750;13.198;2023-04-21T00:27:50;3.22;;;2.60;;
69240;SDS011;56352;55.750;13.198;2023-04-21T00:30:16;7.32;;;2.30;;
69240;SDS011;56352;55.750;13.198;2023-04-21T00:32:43;4.00;;;2.58;;
69240;SDS011;56352;55.750;13.198;2023-04-21T00:35:09;6.47;;;3.17;;
69240;SDS011;56352;55.750;13.198;2023-04-21T00:37:36;5.65;;;2.63;;
69240;SDS011;56352;55.750;13.198;2023-04-21T00:40:03;3.30;;;2.40;;
69240;SDS011;56352;55.750;13.198;2023-04-21T00:42:30;3.15;;;2.70;;
69240;SDS011;56352;55.750;13.198;2023-04-21T00:44:56;5.65;;;2.90;;
69240;SDS011;56352;55.750;13.198;2023-04-21T00:47:23;4.63;;;2.42;;
69240;SDS011;56352;55.750;13.198;2023-04-21T00:49:50;3.85;;;2.40;;
69240;SDS011;56352;55.750;13.198;2023-04-21T00:52:17;3.45;;;2.38;;
69240;SDS011;56352;55.750;13.198;2023-04-21T00:54:44;4.95;;;2.50;;
69240;SDS011;56352;55.750;13.198;2023-04-21T00:57:11;5.32;;;2.40;;
69240;SDS011;56352;55.750;13.198;2023-04-21T00:59:37;2.20;;;2.00;;
69240;SDS011;56352;55.750;13.198;2023-04-21T01:02:03;5.10;;;2.38;;
69240;SDS011;56352;55.750;13.198;2023-04-21T01:04:30;3.67;;;2.20;;
69240;SDS011;56352;55.750;13.198;2023-04-21T01:07:06;4.18;;;2.60;;
69240;SDS011;56352;55.750;13.198;2023-04-21T01:09:33;2.85;;;2.22;;
69240;SDS011;56352;55.750;13.198;2023-04-21T01:12:04;3.90;;;2.47;;
69240;SDS011;56352;55.750;13.198;2023-04-21T01:14:31;3.42;;;2.30;;
69240;SDS011;56352;55.750;13.198;2023-04-21T01:16:57;3.10;;;2.42;;
69240;SDS011;56352;55.750;13.198;2023-04-21T01:19:25;3.53;;;2.25;;
69240;SDS011;56352;55.750;13.198;2023-04-21T01:21:53;2.67;;;2.17;;
69240;SDS011;56352;55.750;13.198;2023-04-21T01:24:23;4.00;;;2.40;;
69240;SDS011;56352;55.750;13.198;2023-04-21T01:26:52;4.93;;;2.40;;
69240;SDS011;56352;55.750;13.198;2023-04-21T01:29:19;5.22;;;2.58;;
69240;SDS011;56352;55.750;13.198;2023-04-21T01:31:46;4.15;;;2.20;;
69240;SDS011;56352;55.750;13.198;2023-04-21T01:34:13;4.32;;;2.65;;
69240;SDS011;56352;55.750;13.198;2023-04-21T01:36:39;8.30;;;2.17;;
69240;SDS011;56352;55.750;13.198;2023-04-21T01:39:06;2.65;;;2.13;;
69240;SDS011;56352;55.750;13.198;2023-04-21T01:41:32;2.65;;;2.28;;
69240;SDS011;56352;55.750;13.198;2023-04-21T01:43:59;3.05;;;2.15;;
69240;SDS011;56352;55.750;13.198;2023-04-21T01:46:26;3.72;;;2.47;;
69240;SDS011;56352;55.750;13.198;2023-04-21T01:48:53;3.58;;;2.42;;
69240;SDS011;56352;55.750;13.198;2023-04-21T01:51:20;2.55;;;1.90;;
69240;SDS011;56352;55.750;13.198;2023-04-21T01:53:46;4.60;;;2.17;;
69240;SDS011;56352;55.750;13.198;2023-04-21T01:56:13;3.42;;;2.10;;
69240;SDS011;56352;55.750;13.198;2023-04-21T01:58:40;3.00;;;2.20;;
69240;SDS011;56352;55.750;13.198;2023-04-21T02:01:07;3.65;;;2.28;;
69240;SDS011;56352;55.750;13.198;2023-04-21T02:03:33;4.50;;;2.38;;
69240;SDS011;56352;55.750;13.198;2023-04-21T02:06:00;4.22;;;2.00;;
69240;SDS011;56352;55.750;13.198;2023-04-21T02:08:27;3.45;;;1.90;;
69240;SDS011;56352;55.750;13.198;2023-04-21T02:10:53;4.00;;;1.98;;
69240;SDS011;56352;55.750;13.198;2023-04-21T02:13:19;3.58;;;2.20;;
69240;SDS011;56352;55.750;13.198;2023-04-21T02:15:46;4.07;;;2.10;;
69240;SDS011;56352;55.750;13.198;2023-04-21T02:18:13;3.60;;;2.17;;
69240;SDS011;56352;55.750;13.198;2023-04-21T02:20:40;4.35;;;1.90;;
69240;SDS011;56352;55.750;13.198;2023-04-21T02:23:06;2.50;;;2.30;;
69240;SDS011;56352;55.750;13.198;2023-04-21T02:25:33;4.28;;;2.10;;
69240;SDS011;56352;55.750;13.198;2023-04-21T02:27:59;3.08;;;2.15;;
69240;SDS011;56352;55.750;13.198;2023-04-21T02:30:26;4.47;;;2.10;;
69240;SDS011;56352;55.750;13.198;2023-04-21T02:32:52;3.05;;;2.08;;
69240;SDS011;56352;55.750;13.198;2023-04-21T02:35:19;2.97;;;2.10;;
69240;SDS011;56352;55.750;13.198;2023-04-21T02:37:46;2.70;;;2.00;;
69240;SDS011;56352;55.750;13.198;2023-04-21T02:40:12;3.42;;;2.05;;
69240;SDS011;56352;55.750;13.198;2023-04-21T02:42:39;2.20;;;1.88;;
69240;SDS011;56352;55.750;13.198;2023-04-21T02:45:05;3.63;;;2.22;;
69240;SDS011;56352;55.750;13.198;2023-04-21T02:47:32;3.47;;;2.28;;
69240;SDS011;56352;55.750;13.198;2023-04-21T02:49:59;4.65;;;2.08;;
69240;SDS011;56352;55.750;13.198;2023-04-21T02:52:26;3.17;;;2.10;;
69240;SDS011;56352;55.750;13.198;2023-04-21T02:54:53;2.70;;;2.13;;
69240;SDS011;56352;55.750;13.198;2023-04-21T02:57:19;3.25;;;2.00;;
69240;SDS011;56352;55.750;13.198;2023-04-21T02:59:46;2.22;;;1.90;;
69240;SDS011;56352;55.750;13.198;2023-04-21T03:02:12;4.20;;;2.40;;
69240;SDS011;56352;55.750;13.198;2023-04-21T03:04:39;3.97;;;2.33;;
69240;SDS011;56352;55.750;13.198;2023-04-21T03:07:10;2.55;;;2.15;;
69240;SDS011;56352;55.750;13.198;2023-04-21T03:09:36;3.53;;;2.10;;
69240;SDS011;56352;55.750;13.198;2023-04-21T03:12:03;4.00;;;2.30;;
69240;SDS011;56352;55.750;13.198;2023-04-21T03:14:29;3.05;;;2.22;;
69240;SDS011;56352;55.750;13.198;2023-04-21T03:16:56;2.83;;;2.33;;
69240;SDS011;56352;55.750;13.198;2023-04-21T03:19:22;3.25;;;2.05;;
69240;SDS011;56352;55.750;13.198;2023-04-21T03:21:49;4.03;;;2.40;;
69240;SDS011;56352;55.750;13.198;2023-04-21T03:24:15;2.78;;;1.90;;
69240;SDS011;56352;55.750;13.198;2023-04-21T03:26:42;3.13;;;2.35;;
69240;SDS011;56352;55.750;13.198;2023-04-21T03:29:09;2.55;;;2.10;;
69240;SDS011;56352;55.750;13.198;2023-04-21T03:31:35;2.35;;;1.90;;
69240;SDS011;56352;55.750;13.198;2023-04-21T03:34:02;3.67;;;2.17;;
69240;SDS011;56352;55.750;13.198;2023-04-21T03:36:28;2.95;;;2.28;;
69240;SDS011;56352;55.750;13.198;2023-04-21T03:38:55;3.67;;;2.30;;
69240;SDS011;56352;55.750;13.198;2023-04-21T03:41:34;4.53;;;2.33;;
69240;SDS011;56352;55.750;13.198;2023-04-21T03:44:01;4.32;;;2.22;;
69240;SDS011;56352;55.750;13.198;2023-04-21T03:46:27;4.05;;;2.42;;
69240;SDS011;56352;55.750;13.198;2023-04-21T03:48:54;3.88;;;2.50;;
69240;SDS011;56352;55.750;13.198;2023-04-21T03:51:20;3.30;;;2.47;;
69240;SDS011;56352;55.750;13.198;2023-04-21T03:53:47;3.28;;;1.95;;
69240;SDS011;56352;55.750;13.198;2023-04-21T03:56:13;3.90;;;1.88;;
69240;SDS011;56352;55.750;13.198;2023-04-21T03:58:40;2.72;;;1.90;;
69240;SDS011;56352;55.750;13.198;2023-04-21T04:01:06;3.30;;;2.22;;
69240;SDS011;56352;55.750;13.198;2023-04-21T04:03:33;3.13;;;1.92;;
69240;SDS011;56352;55.750;13.198;2023-04-21T04:06:00;3.88;;;2.13;;
69240;SDS011;56352;55.750;13.198;2023-04-21T04:08:29;3.95;;;2.13;;
69240;SDS011;56352;55.750;13.198;2023-04-21T04:10:56;5.25;;;2.38;;
69240;SDS011;56352;55.750;13.198;2023-04-21T04:13:23;4.43;;;2.42;;
69240;SDS011;56352;55.750;13.198;2023-04-21T04:15:51;2.53;;;1.80;;
69240;SDS011;56352;55.750;13.198;2023-04-21T04:18:18;4.18;;;2.05;;
69240;SDS011;56352;55.750;13.198;2023-04-21T04:20:45;5.63;;;2.63;;
69240;SDS011;56352;55.750;13.198;2023-04-21T04:23:11;4.07;;;2.20;;
69240;SDS011;56352;55.750;13.198;2023-04-21T04:25:38;5.60;;;3.10;;
69240;SDS011;56352;55.750;13.198;2023-04-21T04:28:05;4.13;;;2.25;;
69240;SDS011;56352;55.750;13.198;2023-04-21T04:30:32;5.00;;;2.42;;
69240;SDS011;56352;55.750;13.198;2023-04-21T04:33:00;3.38;;;2.60;;
69240;SDS011;56352;55.750;13.198;2023-04-21T04:35:27;4.68;;;2.08;;
69240;SDS011;56352;55.750;13.198;2023-04-21T04:37:54;3.30;;;2.45;;
69240;SDS011;56352;55.750;13.198;2023-04-21T04:40:22;3.05;;;2.38;;
69240;SDS011;56352;55.750;13.198;2023-04-21T04:42:48;4.15;;;2.55;;
69240;SDS011;56352;55.750;13.198;2023-04-21T04:45:22;3.97;;;2.58;;
69240;SDS011;56352;55.750;13.198;2023-04-21T04:47:51;3.90;;;2.60;;
69240;SDS011;56352;55.750;13.198;2023-04-21T04:50:18;4.60;;;3.58;;
69240;SDS011;56352;55.750;13.198;2023-04-21T04:52:44;3.45;;;3.10;;
69240;SDS011;56352;55.750;13.198;2023-04-21T04:55:12;6.97;;;2.88;;
69240;SDS011;56352;55.750;13.198;2023-04-21T04:57:39;3.42;;;2.70;;
69240;SDS011;56352;55.750;13.198;2023-04-21T05:00:06;3.50;;;2.85;;
69240;SDS011;56352;55.750;13.198;2023-04-21T05:02:37;3.90;;;2.75;;
69240;SDS011;56352;55.750;13.198;2023-04-21T05:05:04;3.88;;;2.58;;
69240;SDS011;56352;55.750;13.198;2023-04-21T05:07:35;5.53;;;2.95;;
69240;SDS011;56352;55.750;13.198;2023-04-21T05:10:01;2.83;;;2.10;;
69240;SDS011;56352;55.750;13.198;2023-04-21T05:12:30;3.85;;;2.60;;
69240;SDS011;56352;55.750;13.198;2023-04-21T05:14:57;5.38;;;2.65;;
69240;SDS011;56352;55.750;13.198;2023-04-21T05:17:24;3.45;;;2.72;;
69240;SDS011;56352;55.750;13.198;2023-04-21T05:19:50;4.32;;;2.65;;
69240;SDS011;56352;55.750;13.198;2023-04-21T05:22:17;4.57;;;3.30;;
69240;SDS011;56352;55.750;13.198;2023-04-21T05:24:43;5.38;;;2.80;;
69240;SDS011;56352;55.750;13.198;2023-04-21T05:27:10;4.97;;;3.22;;
69240;SDS011;56352;55.750;13.198;2023-04-21T05:29:36;5.72;;;3.00;;
69240;SDS011;56352;55.750;13.198;2023-04-21T05:32:03;3.70;;;2.60;;
69240;SDS011;56352;55.750;13.198;2023-04-21T05:34:31;3.42;;;2.50;;
69240;SDS011;56352;55.750;13.198;2023-04-21T05:36:57;3.70;;;2.67;;
69240;SDS011;56352;55.750;13.198;2023-04-21T05:39:25;3.45;;;2.47;;
69240;SDS011;56352;55.750;13.198;2023-04-21T05:41:52;5.15;;;3.13;;
69240;SDS011;56352;55.750;13.198;2023-04-21T05:44:18;6.18;;;3.00;;
69240;SDS011;56352;55.750;13.198;2023-04-21T05:46:45;6.70;;;3.05;;
69240;SDS011;56352;55.750;13.198;2023-04-21T05:49:12;3.10;;;2.80;;
69240;SDS011;56352;55.750;13.198;2023-04-21T05:51:38;3.35;;;2.80;;
69240;SDS011;56352;55.750;13.198;2023-04-21T05:54:04;7.28;;;4.30;;
69240;SDS011;56352;55.750;13.198;2023-04-21T05:56:31;6.55;;;3.35;;
69240;SDS011;56352;55.750;13.198;2023-04-21T05:58:57;3.15;;;2.80;;
69240;SDS011;56352;55.750;13.198;2023-04-21T06:01:33;5.05;;;3.10;;
69240;SDS011;56352;55.750;13.198;2023-04-21T06:04:00;3.97;;;3.08;;
69240;SDS011;56352;55.750;13.198;2023-04-21T06:06:27;4.13;;;2.92;;
69240;SDS011;56352;55.750;13.198;2023-04-21T06:08:54;4.50;;;3.00;;
69240;SDS011;56352;55.750;13.198;2023-04-21T06:11:20;3.55;;;2.83;;
69240;SDS011;56352;55.750;13.198;2023-04-21T06:13:47;3.28;;;2.92;;
69240;SDS011;56352;55.750;13.198;2023-04-21T06:16:14;3.88;;;3.03;;
69240;SDS011;56352;55.750;13.198;2023-04-21T06:18:40;3.45;;;2.80;;
69240;SDS011;56352;55.750;13.198;2023-04-21T06:21:07;3.38;;;2.60;;
69240;SDS011;56352;55.750;13.198;2023-04-21T06:23:33;5.38;;;2.75;;
69240;SDS011;56352;55.750;13.198;2023-04-21T06:26:03;9.77;;;2.90;;
69240;SDS011;56352;55.750;13.198;2023-04-21T06:28:30;3.70;;;2.42;;
69240;SDS011;56352;55.750;13.198;2023-04-21T06:30:58;3.15;;;2.35;;
69240;SDS011;56352;55.750;13.198;2023-04-21T06:33:25;6.13;;;2.70;;
69240;SDS011;56352;55.750;13.198;2023-04-21T06:35:52;3.80;;;2.20;;
69240;SDS011;56352;55.750;13.198;2023-04-21T06:38:18;4.32;;;2.30;;
69240;SDS011;56352;55.750;13.198;2023-04-21T06:40:45;4.05;;;2.20;;
69240;SDS011;56352;55.750;13.198;2023-04-21T06:43:12;4.30;;;2.60;;
69240;SDS011;56352;55.750;13.198;2023-04-21T06:45:38;4.25;;;2.35;;
69240;SDS011;56352;55.750;13.198;2023-04-21T06:48:05;5.22;;;2.60;;
69240;SDS011;56352;55.750;13.198;2023-04-21T06:50:31;5.18;;;2.75;;
69240;SDS011;56352;55.750;13.198;2023-04-21T06:52:58;3.05;;;2.30;;
69240;SDS011;56352;55.750;13.198;2023-04-21T06:55:24;3.47;;;2.30;;
69240;SDS011;56352;55.750;13.198;2023-04-21T06:57:51;3.78;;;2.60;;
69240;SDS011;56352;55.750;13.198;2023-04-21T07:00:18;4.82;;;2.50;;
69240;SDS011;56352;55.750;13.198;2023-04-21T07:02:44;5.78;;;2.80;;
69240;SDS011;56352;55.750;13.198;2023-04-21T07:05:11;2.78;;;2.33;;
69240;SDS011;56352;55.750;13.198;2023-04-21T07:07:38;4.07;;;2.42;;
69240;SDS011;56352;55.750;13.198;2023-04-21T07:10:05;3.78;;;2.40;;
69240;SDS011;56352;55.750;13.198;2023-04-21T07:12:31;5.88;;;2.67;;
69240;SDS011;56352;55.750;13.198;2023-04-21T07:14:58;3.65;;;2.58;;
69240;SDS011;56352;55.750;13.198;2023-04-21T07:17:26;3.08;;;2.20;;
69240;SDS011;56352;55.750;13.198;2023-04-21T07:19:56;5.38;;;2.30;;
69240;SDS011;56352;55.750;13.198;2023-04-21T07:22:28;3.33;;;2.45;;
69240;SDS011;56352;55.750;13.198;2023-04-21T07:24:54;2.92;;;2.17;;
69240;SDS011;56352;55.750;13.198;2023-04-21T07:27:33;3.33;;;2.23;;
69240;SDS011;56352;55.750;13.198;2023-04-21T07:33:37;3.35;;;2.10;;
69240;SDS011;56352;55.750;13.198;2023-04-21T07:36:09;2.90;;;1.80;;
69240;SDS011;56352;55.750;13.198;2023-04-21T07:38:39;2.22;;;1.85;;
69240;SDS011;56352;55.750;13.198;2023-04-21T07:41:34;3.42;;;1.85;;
69240;SDS011;56352;55.750;13.198;2023-04-21T07:44:00;4.03;;;2.10;;
69240;SDS011;56352;55.750;13.198;2023-04-21T07:46:33;2.92;;;1.90;;
69240;SDS011;56352;55.750;13.198;2023-04-21T07:49:08;3.40;;;2.00;;
69240;SDS011;56352;55.750;13.198;2023-04-21T07:52:07;2.97;;;1.95;;
69240;SDS011;56352;55.750;13.198;2023-04-21T07:54:45;3.28;;;1.77;;
69240;SDS011;56352;55.750;13.198;2023-04-21T07:57:14;2.00;;;1.80;;
69240;SDS011;56352;55.750;13.198;2023-04-21T08:03:05;4.10;;;1.90;;
69240;SDS011;56352;55.750;13.198;2023-04-21T08:05:32;2.88;;;1.80;;
69240;SDS011;56352;55.750;13.198;2023-04-21T08:08:04;4.07;;;2.10;;
69240;SDS011;56352;55.750;13.198;2023-04-21T08:10:30;1.85;;;1.65;;
69240;SDS011;56352;55.750;13.198;2023-04-21T08:12:57;2.10;;;1.83;;
69240;SDS011;56352;55.750;13.198;2023-04-21T08:15:26;2.15;;;1.80;;
69240;SDS011;56352;55.750;13.198;2023-04-21T08:17:53;1.70;;;1.50;;
69240;SDS011;56352;55.750;13.198;2023-04-21T08:20:20;2.15;;;1.80;;
69240;SDS011;56352;55.750;13.198;2023-04-21T08:22:46;1.95;;;1.70;;
69240;SDS011;56352;55.750;13.198;2023-04-21T08:25:13;1.88;;;1.73;;
69240;SDS011;56352;55.750;13.198;2023-04-21T08:27:40;3.00;;;1.48;;
69240;SDS011;56352;55.750;13.198;2023-04-21T08:30:07;2.40;;;1.60;;
69240;SDS011;56352;55.750;13.198;2023-04-21T08:32:34;2.05;;;1.60;;
69240;SDS011;56352;55.750;13.198;2023-04-21T08:35:01;1.90;;;1.60;;
69240;SDS011;56352;55.750;13.198;2023-04-21T08:37:28;1.80;;;1.60;;
69240;SDS011;56352;55.750;13.198;2023-04-21T08:39:54;2.00;;;1.80;;
69240;SDS011;56352;55.750;13.198;2023-04-21T08:42:21;2.05;;;1.65;;
69240;SDS011;56352;55.750;13.198;2023-04-21T08:44:47;2.78;;;1.60;;
69240;SDS011;56352;55.750;13.198;2023-04-21T08:47:14;2.13;;;1.77;;
69240;SDS011;56352;55.750;13.198;2023-04-21T08:49:41;2.42;;;1.70;;
69240;SDS011;56352;55.750;13.198;2023-04-21T08:52:11;2.13;;;1.58;;
69240;SDS011;56352;55.750;13.198;2023-04-21T08:54:56;2.85;;;1.60;;
69240;SDS011;56352;55.750;13.198;2023-04-21T08:57:29;3.15;;;1.90;;
69240;SDS011;56352;55.750;13.198;2023-04-21T09:00:02;1.70;;;1.58;;
69240;SDS011;56352;55.750;13.198;2023-04-21T09:03:01;2.97;;;1.95;;
69240;SDS011;56352;55.750;13.198;2023-04-21T09:06:01;2.30;;;1.60;;
69240;SDS011;56352;55.750;13.198;2023-04-21T09:08:28;2.58;;;1.80;;
69240;SDS011;56352;55.750;13.198;2023-04-21T09:11:15;2.13;;;1.80;;
69240;SDS011;56352;55.750;13.198;2023-04-21T09:13:43;3.33;;;1.70;;
69240;SDS011;56352;55.750;13.198;2023-04-21T09:16:14;2.72;;;1.45;;
69240;SDS011;56352;55.750;13.198;2023-04-21T09:18:45;3.10;;;1.63;;
69240;SDS011;56352;55.750;13.198;2023-04-21T09:21:27;2.35;;;1.80;;
69240;SDS011;56352;55.750;13.198;2023-04-21T09:24:03;1.95;;;1.60;;
69240;SDS011;56352;55.750;13.198;2023-04-21T09:26:48;2.45;;;1.80;;
69240;SDS011;56352;55.750;13.198;2023-04-21T09:29:15;1.80;;;1.60;;
69240;SDS011;56352;55.750;13.198;2023-04-21T09:31:47;3.28;;;1.83;;
69240;SDS011;56352;55.750;13.198;2023-04-21T09:34:25;2.80;;;1.60;;
69240;SDS011;56352;55.750;13.198;2023-04-21T09:37:02;2.80;;;1.60;;
69240;SDS011;56352;55.750;13.198;2023-04-21T09:39:34;2.88;;;1.92;;
69240;SDS011;56352;55.750;13.198;2023-04-21T09:42:27;1.98;;;1.75;;
69240;SDS011;56352;55.750;13.198;2023-04-21T09:45:08;2.42;;;1.70;;
69240;SDS011;56352;55.750;13.198;2023-04-21T09:47:51;2.13;;;1.60;;
69240;SDS011;56352;55.750;13.198;2023-04-21T09:50:21;3.33;;;1.60;;
69240;SDS011;56352;55.750;13.198;2023-04-21T09:53:09;1.65;;;1.55;;
69240;SDS011;56352;55.750;13.198;2023-04-21T09:55:38;1.65;;;1.55;;
69240;SDS011;56352;55.750;13.198;2023-04-21T09:58:06;3.22;;;1.70;;
69240;SDS011;56352;55.750;13.198;2023-04-21T10:00:35;3.30;;;1.73;;
69240;SDS011;56352;55.750;13.198;2023-04-21T10:03:05;3.95;;;1.73;;
69240;SDS011;56352;55.750;13.198;2023-04-21T10:05:37;2.28;;;1.80;;
69240;SDS011;56352;55.750;13.198;2023-04-21T10:08:09;2.10;;;1.90;;
69240;SDS011;56352;55.750;13.198;2023-04-21T10:10:37;1.80;;;1.70;;
69240;SDS011;56352;55.750;13.198;2023-04-21T10:13:11;3.45;;;1.80;;
69240;SDS011;56352;55.750;13.198;2023-04-21T10:22:26;5.05;;;2.10;;
69240;SDS011;56352;55.750;13.198;2023-04-21T10:31:50;1.98;;;1.77;;
69240;SDS011;56352;55.750;13.198;2023-04-21T10:34:18;2.10;;;1.83;;
69240;SDS011;56352;55.750;13.198;2023-04-21T10:39:28;4.82;;;1.83;;
69240;SDS011;56352;55.750;13.198;2023-04-21T10:41:57;2.17;;;1.63;;
69240;SDS011;56352;55.750;13.198;2023-04-21T10:44:24;3.40;;;2.13;;
69240;SDS011;56352;55.750;13.198;2023-04-21T10:46:51;2.58;;;1.92;;
69240;SDS011;56352;55.750;13.198;2023-04-21T10:49:28;2.40;;;1.80;;
69240;SDS011;56352;55.750;13.198;2023-04-21T10:55:03;2.83;;;1.90;;
69240;SDS011;56352;55.750;13.198;2023-04-21T10:57:33;2.20;;;2.00;;
69240;SDS011;56352;55.750;13.198;2023-04-21T11:00:00;4.15;;;2.22;;
69240;SDS011;56352;55.750;13.198;2023-04-21T11:02:30;3.60;;;2.03;;
69240;SDS011;56352;55.750;13.198;2023-04-21T11:04:57;2.88;;;1.90;;
69240;SDS011;56352;55.750;13.198;2023-04-21T11:09:56;3.20;;;2.00;;
69240;SDS011;56352;55.750;13.198;2023-04-21T11:12:27;2.17;;;1.90;;
69240;SDS011;56352;55.750;13.198;2023-04-21T11:14:55;2.25;;;1.90;;
69240;SDS011;56352;55.750;13.198;2023-04-21T11:17:22;3.92;;;1.92;;
69240;SDS011;56352;55.750;13.198;2023-04-21T11:19:50;2.83;;;1.80;;
69240;SDS011;56352;55.750;13.198;2023-04-21T11:22:20;3.25;;;2.13;;
69240;SDS011;56352;55.750;13.198;2023-04-21T11:24:48;2.67;;;2.05;;
69240;SDS011;56352;55.750;13.198;2023-04-21T11:29:43;2.70;;;2.10;;
69240;SDS011;56352;55.750;13.198;2023-04-21T11:32:10;4.35;;;2.13;;
69240;SDS011;56352;55.750;13.198;2023-04-21T11:34:37;2.10;;;1.90;;
69240;SDS011;56352;55.750;13.198;2023-04-21T11:37:05;3.65;;;2.03;;
69240;SDS011;56352;55.750;13.198;2023-04-21T11:41:58;2.22;;;1.95;;
69240;SDS011;56352;55.750;13.198;2023-04-21T11:44:41;3.42;;;1.90;;
69240;SDS011;56352;55.750;13.198;2023-04-21T11:47:11;4.57;;;2.15;;
69240;SDS011;56352;55.750;13.198;2023-04-21T11:52:33;3.45;;;2.25;;
69240;SDS011;56352;55.750;13.198;2023-04-21T11:55:07;3.08;;;2.20;;
69240;SDS011;56352;55.750;13.198;2023-04-21T12:00:04;2.47;;;2.25;;
69240;SDS011;56352;55.750;13.198;2023-04-21T12:02:34;2.42;;;1.80;;
69240;SDS011;56352;55.750;13.198;2023-04-21T12:07:28;2.20;;;2.00;;
69240;SDS011;56352;55.750;13.198;2023-04-21T12:09:55;3.30;;;2.65;;
69240;SDS011;56352;55.750;13.198;2023-04-21T12:12:21;3.17;;;2.00;;
69240;SDS011;56352;55.750;13.198;2023-04-21T12:14:49;2.60;;;2.22;;
69240;SDS011;56352;55.750;13.198;2023-04-21T12:17:16;2.17;;;2.00;;
69240;SDS011;56352;55.750;13.198;2023-04-21T12:19:43;2.47;;;2.10;;
69240;SDS011;56352;55.750;13.198;2023-04-21T12:22:10;2.20;;;2.00;;
69240;SDS011;56352;55.750;13.198;2023-04-21T12:24:37;2.30;;;2.00;;
69240;SDS011;56352;55.750;13.198;2023-04-21T12:27:04;3.45;;;1.90;;
69240;SDS011;56352;55.750;13.198;2023-04-21T12:29:31;3.55;;;2.10;;
69240;SDS011;56352;55.750;13.198;2023-04-21T12:32:00;2.05;;;1.85;;
69240;SDS011;56352;55.750;13.198;2023-04-21T12:34:27;2.80;;;2.13;;
69240;SDS011;56352;55.750;13.198;2023-04-21T12:36:54;3.03;;;2.10;;
69240;SDS011;56352;55.750;13.198;2023-04-21T12:39:20;2.03;;;1.92;;
69240;SDS011;56352;55.750;13.198;2023-04-21T12:41:47;3.55;;;1.88;;
69240;SDS011;56352;55.750;13.198;2023-04-21T12:44:14;2.38;;;1.92;;
69240;SDS011;56352;55.750;13.198;2023-04-21T12:46:40;2.78;;;2.03;;
69240;SDS011;56352;55.750;13.198;2023-04-21T12:49:07;2.20;;;2.00;;
69240;SDS011;56352;55.750;13.198;2023-04-21T12:51:35;2.38;;;2.10;;
69240;SDS011;56352;55.750;13.198;2023-04-21T12:54:01;1.98;;;1.80;;
69240;SDS011;56352;55.750;13.198;2023-04-21T12:56:28;3.55;;;2.03;;
69240;SDS011;56352;55.750;13.198;2023-04-21T12:58:55;1.77;;;1.67;;
69240;SDS011;56352;55.750;13.198;2023-04-21T13:01:22;3.15;;;1.90;;
69240;SDS011;56352;55.750;13.198;2023-04-21T13:03:49;2.15;;;1.80;;
69240;SDS011;56352;55.750;13.198;2023-04-21T13:06:16;1.90;;;1.80;;
69240;SDS011;56352;55.750;13.198;2023-04-21T13:08:42;4.20;;;2.10;;
69240;SDS011;56352;55.750;13.198;2023-04-21T13:11:09;2.80;;;2.00;;
69240;SDS011;56352;55.750;13.198;2023-04-21T13:13:36;2.65;;;1.88;;
69240;SDS011;56352;55.750;13.198;2023-04-21T13:16:02;2.35;;;2.08;;
69240;SDS011;56352;55.750;13.198;2023-04-21T13:18:29;2.30;;;1.97;;
69240;SDS011;56352;55.750;13.198;2023-04-21T13:20:56;3.85;;;2.03;;
69240;SDS011;56352;55.750;13.198;2023-04-21T13:23:22;2.97;;;2.03;;
69240;SDS011;56352;55.750;13.198;2023-04-21T13:25:49;4.45;;;2.10;;
69240;SDS011;56352;55.750;13.198;2023-04-21T13:28:16;2.75;;;2.00;;
69240;SDS011;56352;55.750;13.198;2023-04-21T13:30:42;3.55;;;2.00;;
69240;SDS011;56352;55.750;13.198;2023-04-21T13:33:10;2.10;;;1.90;;
69240;SDS011;56352;55.750;13.198;2023-04-21T13:35:37;4.88;;;2.00;;
69240;SDS011;56352;55.750;13.198;2023-04-21T13:38:03;3.22;;;1.25;;
69240;SDS011;56352;55.750;13.198;2023-04-21T13:40:30;2.88;;;1.30;;
69240;SDS011;56352;55.750;13.198;2023-04-21T13:42:57;2.40;;;1.50;;
69240;SDS011;56352;55.750;13.198;2023-04-21T13:45:26;1.90;;;1.30;;
69240;SDS011;56352;55.750;13.198;2023-04-21T13:47:53;2.10;;;1.20;;
69240;SDS011;56352;55.750;13.198;2023-04-21T13:50:19;3.05;;;1.58;;
69240;SDS011;56352;55.750;13.198;2023-04-21T13:52:46;1.80;;;1.30;;
69240;SDS011;56352;55.750;13.198;2023-04-21T13:55:13;3.00;;;1.30;;
69240;SDS011;56352;55.750;13.198;2023-04-21T13:57:39;2.07;;;1.50;;
69240;SDS011;56352;55.750;13.198;2023-04-21T14:00:06;1.83;;;1.40;;
69240;SDS011;56352;55.750;13.198;2023-04-21T14:02:36;1.80;;;1.50;;
69240;SDS011;56352;55.750;13.198;2023-04-21T14:05:04;3.38;;;1.60;;
69240;SDS011;56352;55.750;13.198;2023-04-21T14:07:30;1.83;;;1.20;;
69240;SDS011;56352;55.750;13.198;2023-04-21T14:09:57;1.58;;;1.27;;
69240;SDS011;56352;55.750;13.198;2023-04-21T14:12:24;1.50;;;1.20;;
69240;SDS011;56352;55.750;13.198;2023-04-21T14:14:53;2.50;;;1.20;;
69240;SDS011;56352;55.750;13.198;2023-04-21T14:17:20;1.30;;;1.20;;
69240;SDS011;56352;55.750;13.198;2023-04-21T14:19:48;1.45;;;1.35;;
69240;SDS011;56352;55.750;13.198;2023-04-21T14:22:15;2.50;;;1.35;;
69240;SDS011;56352;55.750;13.198;2023-04-21T14:24:42;2.65;;;1.20;;
69240;SDS011;56352;55.750;13.198;2023-04-21T14:27:08;5.68;;;1.23;;
69240;SDS011;56352;55.750;13.198;2023-04-21T14:29:35;2.55;;;1.15;;
69240;SDS011;56352;55.750;13.198;2023-04-21T14:32:02;2.77;;;1.30;;
69240;SDS011;56352;55.750;13.198;2023-04-21T14:34:29;2.95;;;1.10;;
69240;SDS011;56352;55.750;13.198;2023-04-21T14:36:55;4.93;;;1.20;;
69240;SDS011;56352;55.750;13.198;2023-04-21T14:39:22;2.25;;;1.77;;
69240;SDS011;56352;55.750;13.198;2023-04-21T14:41:48;4.50;;;1.88;;
69240;SDS011;56352;55.750;13.198;2023-04-21T14:44:15;2.47;;;1.60;;
69240;SDS011;56352;55.750;13.198;2023-04-21T14:46:44;2.83;;;1.70;;
69240;SDS011;56352;55.750;13.198;2023-04-21T14:49:26;1.70;;;1.50;;
69240;SDS011;56352;55.750;13.198;2023-04-21T14:51:53;3.58;;;1.55;;
69240;SDS011;56352;55.750;13.198;2023-04-21T14:54:19;1.92;;;1.23;;
69240;SDS011;56352;55.750;13.198;2023-04-21T14:56:46;2.58;;;1.27;;
69240;SDS011;56352;55.750;13.198;2023-04-21T14:59:12;2.75;;;1.67;;
69240;SDS011;56352;55.750;13.198;2023-04-21T15:01:39;2.10;;;1.20;;
69240;SDS011;56352;55.750;13.198;2023-04-21T15:04:05;1.55;;;1.30;;
69240;SDS011;56352;55.750;13.198;2023-04-21T15:06:32;2.37;;;1.30;;
69240;SDS011;56352;55.750;13.198;2023-04-21T15:08:59;4.35;;;1.40;;
69240;SDS011;56352;55.750;13.198;2023-04-21T15:11:25;3.72;;;1.77;;
69240;SDS011;56352;55.750;13.198;2023-04-21T15:13:52;2.58;;;1.50;;
69240;SDS011;56352;55.750;13.198;2023-04-21T15:16:18;1.80;;;1.60;;
69240;SDS011;56352;55.750;13.198;2023-04-21T15:18:45;2.25;;;0.95;;
69240;SDS011;56352;55.750;13.198;2023-04-21T15:21:11;1.77;;;1.00;;